createdAt,value
2022-10-18T00:00:02.469Z,55.02
2022-10-18T00:02:37.877Z,54.91
2022-10-18T00:05:11.503Z,55.42
2022-10-18T00:07:46.462Z,55.07
2022-10-18T00:20:34.467Z,55.00
2022-10-18T00:23:16.475Z,55.37
2022-10-18T00:25:49.602Z,54.94
2022-10-18T00:28:16.145Z,55.04
2022-10-18T00:30:56.493Z,55.07
2022-10-18T00:33:29.522Z,55.38
2022-10-18T00:46:18.466Z,55.04
2022-10-18T00:49:00.484Z,55.11
2022-10-18T00:51:40.874Z,55.38
2022-10-18T00:54:22.494Z,55.33
2022-10-18T00:56:55.930Z,55.50
2022-10-18T01:13:33.196Z,55.00
2022-10-18T01:16:19.182Z,55.47
2022-10-18T01:19:16.493Z,55.53
2022-10-18T01:21:56.870Z,55.55
2022-10-18T01:25:09.492Z,55.45
2022-10-18T01:27:51.843Z,55.26
2022-10-18T01:40:53.454Z,55.56
2022-10-18T01:43:36.471Z,55.52
2022-10-18T01:46:17.310Z,55.62
2022-10-18T01:48:58.508Z,55.28
2022-10-18T01:51:33.624Z,55.57
2022-10-18T02:06:32.473Z,55.27
2022-10-18T02:09:13.292Z,55.59
2022-10-18T02:11:59.503Z,55.70
2022-10-18T02:14:34.781Z,55.35
2022-10-18T02:17:15.576Z,55.38
2022-10-18T02:34:00.449Z,55.65
2022-10-18T02:36:48.507Z,55.77
2022-10-18T02:39:29.246Z,56.04
2022-10-18T02:42:12.495Z,55.93
2022-10-18T02:44:45.537Z,55.67
2022-10-18T02:47:12.150Z,55.47
2022-10-18T03:00:10.450Z,55.90
2022-10-18T03:02:50.484Z,55.95
2022-10-18T03:05:23.685Z,55.81
2022-10-18T03:07:50.228Z,55.86
2022-10-18T03:10:30.497Z,56.03
2022-10-18T03:13:11.914Z,56.05
2022-10-18T03:26:46.452Z,55.98
2022-10-18T03:29:26.510Z,56.13
2022-10-18T03:31:59.543Z,56.16
2022-10-18T03:34:47.472Z,56.20
2022-10-18T03:37:20.559Z,56.25
2022-10-18T03:39:47.160Z,56.01
2022-10-18T03:42:29.739Z,55.91
2022-10-18T03:52:24.455Z,56.07
2022-10-18T03:55:04.485Z,55.97
2022-10-18T03:57:39.728Z,56.12
2022-10-18T04:00:15.457Z,56.17
2022-10-18T04:02:52.002Z,56.32
2022-10-18T04:05:35.477Z,56.46
2022-10-18T04:08:08.569Z,56.08
2022-10-18T04:20:57.461Z,56.50
2022-10-18T04:23:38.979Z,56.48
2022-10-18T04:26:12.522Z,56.33
2022-10-18T04:28:45.568Z,56.38
2022-10-18T04:31:18.655Z,56.48
2022-10-18T04:33:52.336Z,56.35
2022-10-18T04:46:48.489Z,56.42
2022-10-18T04:49:28.485Z,56.49
2022-10-18T04:52:01.497Z,56.52
2022-10-18T04:54:28.711Z,56.54
2022-10-18T04:57:08.493Z,56.52
2022-10-18T04:59:41.506Z,56.51
2022-10-18T05:02:16.466Z,56.36
2022-10-18T05:12:46.437Z,56.45
2022-10-18T05:15:26.470Z,56.69
2022-10-18T05:18:01.470Z,56.75
2022-10-18T05:20:34.473Z,56.57
2022-10-18T05:23:07.617Z,56.46
2022-10-18T05:25:34.164Z,56.62
2022-10-18T05:28:38.229Z,56.68
2022-10-18T05:41:46.469Z,56.53
2022-10-18T05:44:19.855Z,56.62
2022-10-18T05:46:46.401Z,56.75
2022-10-18T05:49:26.478Z,56.65
2022-10-18T05:51:59.673Z,56.60
2022-10-18T06:08:13.473Z,56.66
2022-10-18T06:10:46.528Z,56.85
2022-10-18T06:13:13.070Z,56.87
2022-10-18T06:15:53.561Z,56.81
2022-10-18T06:18:26.496Z,56.94
2022-10-18T06:21:03.478Z,56.93
2022-10-18T06:23:38.447Z,56.84
2022-10-18T06:33:07.026Z,56.86
2022-10-18T06:35:40.623Z,56.92
2022-10-18T06:38:13.488Z,56.89
2022-10-18T06:40:49.867Z,56.90
2022-10-18T06:43:23.460Z,56.75
2022-10-18T06:45:56.535Z,56.99
2022-10-18T06:48:30.469Z,56.81
2022-10-18T07:01:42.516Z,57.19
2022-10-18T07:04:15.529Z,56.83
2022-10-18T07:06:42.094Z,57.16
2022-10-18T07:09:22.476Z,56.91
2022-10-18T07:11:55.610Z,57.06
2022-10-18T07:28:10.450Z,57.13
2022-10-18T07:30:43.505Z,57.01
2022-10-18T07:33:18.981Z,57.00
2022-10-18T07:35:52.585Z,57.10
2022-10-18T07:38:25.468Z,57.36
2022-10-18T07:41:00.241Z,57.35
2022-10-18T07:43:36.498Z,57.33
2022-10-18T07:53:21.448Z,57.79
2022-10-18T07:56:07.173Z,57.70
2022-10-18T07:58:46.596Z,57.92
2022-10-18T08:01:28.483Z,57.74
2022-10-18T08:04:07.011Z,57.80
2022-10-18T08:06:47.476Z,57.96
2022-10-18T08:20:12.306Z,58.58
2022-10-18T08:23:00.597Z,58.83
2022-10-18T08:28:27.670Z,58.81
2022-10-18T08:31:00.465Z,58.86
2022-10-18T08:33:34.198Z,59.27
2022-10-18T08:46:55.430Z,59.09
2022-10-18T08:49:47.628Z,59.42
2022-10-18T08:52:33.859Z,59.20
2022-10-18T08:55:24.484Z,59.33
2022-10-18T08:57:57.792Z,59.32
2022-10-18T09:00:37.465Z,59.35
2022-10-18T09:03:36.818Z,59.68
2022-10-18T09:13:43.468Z,59.71
2022-10-18T09:16:26.543Z,59.60
2022-10-18T09:19:25.457Z,59.45
2022-10-18T09:22:11.909Z,59.12
2022-10-18T09:25:07.480Z,58.82
2022-10-18T09:27:52.794Z,58.62
2022-10-18T09:41:00.446Z,58.56
2022-10-18T09:44:00.465Z,58.76
2022-10-18T09:46:41.103Z,58.95
2022-10-18T09:49:28.459Z,59.03
2022-10-18T09:52:10.779Z,59.49
2022-10-18T10:08:39.464Z,59.22
2022-10-18T10:11:36.276Z,59.09
2022-10-18T10:14:21.499Z,59.42
2022-10-18T10:16:58.709Z,59.15
2022-10-18T10:19:43.467Z,59.31
2022-10-18T10:22:32.956Z,59.15
2022-10-18T10:35:55.817Z,59.25
2022-10-18T10:38:39.118Z,59.12
2022-10-18T10:41:21.607Z,59.24
2022-10-18T10:44:01.479Z,59.29
2022-10-18T10:46:36.358Z,59.58
2022-10-18T10:49:38.641Z,59.68
2022-10-18T11:02:59.233Z,59.81
2022-10-18T11:05:45.345Z,60.17
2022-10-18T11:08:32.072Z,60.00
2022-10-18T11:11:22.218Z,59.72
2022-10-18T11:14:25.270Z,59.81
2022-10-18T11:28:02.481Z,59.17
2022-10-18T11:30:51.552Z,59.39
2022-10-18T11:34:08.143Z,59.49
2022-10-18T11:37:15.576Z,60.04
2022-10-18T11:40:18.965Z,59.49
2022-10-18T11:43:07.004Z,59.82
2022-10-18T11:56:16.426Z,60.81
2022-10-18T11:59:24.496Z,61.92
2022-10-18T12:02:40.606Z,62.80
2022-10-18T12:05:24.079Z,63.32
2022-10-18T12:08:05.967Z,63.33
2022-10-18T12:21:05.424Z,63.90
2022-10-18T12:23:53.481Z,63.97
2022-10-18T12:26:32.148Z,63.73
2022-10-18T12:29:29.492Z,64.26
2022-10-18T12:32:09.959Z,64.22
2022-10-18T12:50:27.895Z,64.18
2022-10-18T12:53:26.456Z,64.27
2022-10-18T12:56:39.174Z,64.36
2022-10-18T12:59:56.481Z,64.27
2022-10-18T13:02:34.844Z,64.62
2022-10-18T13:15:48.446Z,64.37
2022-10-18T13:18:42.466Z,64.71
2022-10-18T13:21:26.134Z,64.86
2022-10-18T13:24:27.453Z,64.63
2022-10-18T13:27:36.767Z,64.56
2022-10-18T13:41:10.519Z,65.51
2022-10-18T13:44:23.987Z,65.03
2022-10-18T13:47:37.214Z,65.29
2022-10-18T13:50:32.456Z,65.01
2022-10-18T13:53:50.470Z,65.11
2022-10-18T14:10:33.308Z,65.39
2022-10-18T14:13:24.086Z,65.53
2022-10-18T14:16:16.463Z,65.27
2022-10-18T14:18:57.366Z,65.12
2022-10-18T14:21:44.469Z,65.19
2022-10-18T14:35:27.574Z,65.47
2022-10-18T14:37:55.925Z,65.51
2022-10-18T14:40:40.492Z,65.73
2022-10-18T14:43:18.776Z,65.52
2022-10-18T14:45:59.525Z,65.69
2022-10-18T14:48:32.537Z,65.12
2022-10-18T15:01:27.509Z,65.45
2022-10-18T15:04:17.445Z,65.33
2022-10-18T15:06:50.485Z,65.51
2022-10-18T15:09:29.477Z,65.34
2022-10-18T15:12:06.145Z,65.73
2022-10-18T15:14:48.453Z,65.36
2022-10-18T15:17:26.913Z,65.26
2022-10-18T15:30:30.420Z,65.39
2022-10-18T15:33:14.481Z,65.52
2022-10-18T15:35:48.043Z,65.29
2022-10-18T15:38:30.474Z,65.28
2022-10-18T15:41:37.063Z,65.76
2022-10-18T15:54:54.430Z,65.51
2022-10-18T15:57:37.759Z,65.51
2022-10-18T16:00:22.319Z,65.24
2022-10-18T16:03:02.453Z,65.38
2022-10-18T16:05:37.362Z,65.70
2022-10-18T16:08:11.459Z,65.56
2022-10-18T16:21:40.761Z,66.11
2022-10-18T16:24:13.522Z,65.71
2022-10-18T16:26:40.393Z,65.69
2022-10-18T16:29:25.447Z,65.85
2022-10-18T16:31:59.305Z,65.95
2022-10-18T16:34:33.458Z,65.96
2022-10-18T16:37:08.969Z,65.84
2022-10-18T16:49:56.470Z,66.15
2022-10-18T16:52:38.761Z,65.95
2022-10-18T16:55:11.957Z,65.84
2022-10-18T16:57:45.463Z,66.18
2022-10-18T17:00:21.495Z,66.04
2022-10-18T17:02:56.472Z,65.81
2022-10-18T17:16:10.894Z,65.67
2022-10-18T17:18:43.522Z,65.76
2022-10-18T17:21:10.083Z,65.48
2022-10-18T17:23:50.498Z,65.48
2022-10-18T17:26:28.830Z,65.83
2022-10-18T17:29:12.535Z,65.45
2022-10-18T17:42:23.475Z,65.36
2022-10-18T17:44:57.794Z,65.56
2022-10-18T17:47:31.748Z,65.55
2022-10-18T17:50:06.103Z,65.38
2022-10-18T17:52:40.734Z,65.34
2022-10-18T17:55:15.109Z,65.37
2022-10-18T17:57:50.498Z,65.57
2022-10-18T18:11:00.450Z,65.42
2022-10-18T18:13:28.928Z,65.44
2022-10-18T18:16:20.458Z,65.48
2022-10-18T18:18:58.420Z,65.63
2022-10-18T18:21:38.461Z,65.48
2022-10-18T18:24:12.328Z,65.16
2022-10-18T18:37:03.425Z,65.19
2022-10-18T18:39:43.461Z,65.43
2022-10-18T18:42:16.502Z,65.42
2022-10-18T18:44:43.062Z,65.29
2022-10-18T18:47:23.672Z,65.37
2022-10-18T19:04:02.422Z,65.34
2022-10-18T19:06:45.491Z,65.50
2022-10-18T19:09:18.621Z,65.21
2022-10-18T19:11:54.446Z,65.40
2022-10-18T19:14:27.489Z,65.26
2022-10-18T19:17:02.453Z,65.54
2022-10-18T19:30:17.448Z,65.44
2022-10-18T19:32:50.521Z,65.66
2022-10-18T19:35:17.090Z,65.57
2022-10-18T19:37:57.457Z,65.46
2022-10-18T19:40:30.497Z,65.47
2022-10-18T19:42:57.042Z,65.23
2022-10-18T19:55:53.421Z,65.41
2022-10-18T19:58:34.701Z,65.37
2022-10-18T20:01:07.611Z,65.55
2022-10-18T20:03:34.294Z,65.60
2022-10-18T20:06:14.458Z,65.61
2022-10-18T20:08:48.014Z,65.52
2022-10-18T20:22:21.418Z,65.55
2022-10-18T20:25:03.460Z,65.19
2022-10-18T20:27:36.589Z,65.08
2022-10-18T20:30:11.396Z,65.34
2022-10-18T20:32:44.641Z,65.42
2022-10-18T20:35:17.455Z,65.28
2022-10-18T20:37:50.645Z,65.04
2022-10-18T20:50:39.430Z,65.28
2022-10-18T20:53:19.466Z,65.29
2022-10-18T20:55:52.519Z,65.25
2022-10-18T20:58:19.067Z,65.41
2022-10-18T21:01:00.745Z,65.75
2022-10-18T21:03:37.129Z,65.80
2022-10-18T21:16:34.428Z,65.80
2022-10-18T21:19:18.468Z,65.93
2022-10-18T21:21:54.597Z,66.04
2022-10-18T21:24:30.456Z,65.97
2022-10-18T21:27:03.569Z,65.98
2022-10-18T21:29:30.104Z,65.59
2022-10-18T21:42:43.424Z,65.83
2022-10-18T21:45:23.446Z,65.50
2022-10-18T21:47:56.815Z,65.76
2022-10-18T21:50:30.478Z,65.76
2022-10-18T21:53:03.541Z,65.80
2022-10-18T21:55:30.133Z,65.92
2022-10-18T21:58:12.470Z,65.79
2022-10-18T22:11:23.444Z,65.92
2022-10-18T22:13:58.882Z,66.01
2022-10-18T22:16:32.452Z,65.72
2022-10-18T22:19:06.894Z,65.83
2022-10-18T22:21:41.484Z,66.15
2022-10-18T22:24:14.873Z,66.20
2022-10-18T22:37:04.422Z,65.92
2022-10-18T22:39:44.434Z,65.91
2022-10-18T22:42:17.606Z,66.23
2022-10-18T22:44:44.150Z,66.05
2022-10-18T22:47:24.421Z,65.97
2022-10-18T23:04:02.413Z,66.06
2022-10-18T23:06:43.121Z,65.86
2022-10-18T23:09:16.518Z,65.79
2022-10-18T23:11:49.441Z,65.90
2022-10-18T23:14:22.560Z,65.91
2022-10-18T23:16:49.097Z,65.45
2022-10-18T23:29:43.411Z,65.23
2022-10-18T23:32:23.426Z,65.19
2022-10-18T23:34:58.714Z,65.06
2022-10-18T23:37:31.721Z,64.95
2022-10-18T23:40:08.236Z,64.78
2022-10-18T23:42:41.455Z,64.92
2022-10-18T23:56:28.449Z,64.83
2022-10-18T23:59:01.489Z,64.57
